sensor_id;sensor_type;location;lat;lon;timestamp;temperature;humidity
16404;DHT22;8311;50.158;8.642;2023-09-18T00:00:38;24.40;63.90
16404;DHT22;8311;50.158;8.642;2023-09-18T00:03:30;24.50;64.00
16404;DHT22;8311;50.158;8.642;2023-09-18T00:06:24;24.40;63.90
16404;DHT22;8311;50.158;8.642;2023-09-18T00:09:18;24.50;64.00
16404;DHT22;8311;50.158;8.642;2023-09-18T00:12:12;24.50;64.00
16404;DHT22;8311;50.158;8.642;2023-09-18T00:15:06;24.50;64.00
16404;DHT22;8311;50.158;8.642;2023-09-18T00:18:00;24.40;64.00
16404;DHT22;8311;50.158;8.642;2023-09-18T00:20:54;24.50;64.00
16404;DHT22;8311;50.158;8.642;2023-09-18T00:23:47;24.50;64.00
16404;DHT22;8311;50.158;8.642;2023-09-18T00:26:41;24.50;64.10
16404;DHT22;8311;50.158;8.642;2023-09-18T00:29:34;24.50;64.10
16404;DHT22;8311;50.158;8.642;2023-09-18T00:32:28;24.50;64.10
16404;DHT22;8311;50.158;8.642;2023-09-18T00:35:20;24.40;64.00
16404;DHT22;8311;50.158;8.642;2023-09-18T00:38:15;24.40;64.10
16404;DHT22;8311;50.158;8.642;2023-09-18T00:41:08;24.40;64.00
16404;DHT22;8311;50.158;8.642;2023-09-18T00:44:04;24.50;64.10
16404;DHT22;8311;50.158;8.642;2023-09-18T00:46:56;24.40;64.10
16404;DHT22;8311;50.158;8.642;2023-09-18T00:49:51;24.50;64.20
16404;DHT22;8311;50.158;8.642;2023-09-18T00:52:45;24.50;64.20
16404;DHT22;8311;50.158;8.642;2023-09-18T00:55:38;24.40;64.20
16404;DHT22;8311;50.158;8.642;2023-09-18T00:58:32;24.50;64.10
16404;DHT22;8311;50.158;8.642;2023-09-18T01:01:27;24.40;64.10
16404;DHT22;8311;50.158;8.642;2023-09-18T01:04:22;24.50;64.10
16404;DHT22;8311;50.158;8.642;2023-09-18T01:07:17;24.40;64.10
16404;DHT22;8311;50.158;8.642;2023-09-18T01:10:10;24.50;64.10
16404;DHT22;8311;50.158;8.642;2023-09-18T01:13:10;24.50;64.10
16404;DHT22;8311;50.158;8.642;2023-09-18T01:16:10;24.50;64.10
16404;DHT22;8311;50.158;8.642;2023-09-18T01:19:09;24.50;64.20
16404;DHT22;8311;50.158;8.642;2023-09-18T01:22:02;24.50;64.10
16404;DHT22;8311;50.158;8.642;2023-09-18T01:24:57;24.50;64.10
16404;DHT22;8311;50.158;8.642;2023-09-18T01:27:51;24.50;64.10
16404;DHT22;8311;50.158;8.642;2023-09-18T01:30:44;24.50;64.10
16404;DHT22;8311;50.158;8.642;2023-09-18T01:33:38;24.50;64.00
16404;DHT22;8311;50.158;8.642;2023-09-18T01:36:32;24.50;64.00
16404;DHT22;8311;50.158;8.642;2023-09-18T01:39:26;24.50;64.10
16404;DHT22;8311;50.158;8.642;2023-09-18T01:42:25;24.50;64.10
16404;DHT22;8311;50.158;8.642;2023-09-18T01:45:19;24.50;64.10
16404;DHT22;8311;50.158;8.642;2023-09-18T01:48:12;24.50;64.10
16404;DHT22;8311;50.158;8.642;2023-09-18T01:51:05;24.40;64.10
16404;DHT22;8311;50.158;8.642;2023-09-18T01:54:00;24.50;64.10
16404;DHT22;8311;50.158;8.642;2023-09-18T01:56:52;24.50;64.10
16404;DHT22;8311;50.158;8.642;2023-09-18T01:59:47;24.50;64.10
16404;DHT22;8311;50.158;8.642;2023-09-18T02:02:41;24.50;64.10
16404;DHT22;8311;50.158;8.642;2023-09-18T02:05:54;24.50;64.10
16404;DHT22;8311;50.158;8.642;2023-09-18T02:08:47;24.50;64.10
16404;DHT22;8311;50.158;8.642;2023-09-18T02:11:43;24.40;64.00
16404;DHT22;8311;50.158;8.642;2023-09-18T02:14:36;24.50;64.10
16404;DHT22;8311;50.158;8.642;2023-09-18T02:17:31;24.50;64.00
16404;DHT22;8311;50.158;8.642;2023-09-18T02:20:25;24.40;64.00
16404;DHT22;8311;50.158;8.642;2023-09-18T02:23:18;24.40;63.90
16404;DHT22;8311;50.158;8.642;2023-09-18T02:26:10;24.50;63.90
16404;DHT22;8311;50.158;8.642;2023-09-18T02:29:07;24.50;63.90
16404;DHT22;8311;50.158;8.642;2023-09-18T02:32:02;24.50;64.00
16404;DHT22;8311;50.158;8.642;2023-09-18T02:34:56;24.40;63.90
16404;DHT22;8311;50.158;8.642;2023-09-18T02:37:50;24.50;63.90
16404;DHT22;8311;50.158;8.642;2023-09-18T02:40:43;24.50;63.90
16404;DHT22;8311;50.158;8.642;2023-09-18T02:43:36;24.40;63.90
16404;DHT22;8311;50.158;8.642;2023-09-18T02:46:30;24.50;64.00
16404;DHT22;8311;50.158;8.642;2023-09-18T02:49:23;24.50;64.00
16404;DHT22;8311;50.158;8.642;2023-09-18T02:52:17;24.50;63.90
16404;DHT22;8311;50.158;8.642;2023-09-18T02:55:11;24.50;64.00
16404;DHT22;8311;50.158;8.642;2023-09-18T02:58:05;24.40;63.90
16404;DHT22;8311;50.158;8.642;2023-09-18T03:00:59;24.50;64.00
16404;DHT22;8311;50.158;8.642;2023-09-18T03:03:52;24.50;64.00
16404;DHT22;8311;50.158;8.642;2023-09-18T03:06:46;24.40;63.90
16404;DHT22;8311;50.158;8.642;2023-09-18T03:09:40;24.50;64.00
16404;DHT22;8311;50.158;8.642;2023-09-18T03:12:33;24.40;63.90
16404;DHT22;8311;50.158;8.642;2023-09-18T03:15:26;24.50;64.10
16404;DHT22;8311;50.158;8.642;2023-09-18T03:18:19;24.50;64.80
16404;DHT22;8311;50.158;8.642;2023-09-18T03:21:12;24.50;64.00
16404;DHT22;8311;50.158;8.642;2023-09-18T03:24:06;24.50;64.00
16404;DHT22;8311;50.158;8.642;2023-09-18T03:27:00;24.50;64.10
16404;DHT22;8311;50.158;8.642;2023-09-18T03:29:53;24.50;64.10
16404;DHT22;8311;50.158;8.642;2023-09-18T03:32:46;24.50;64.10
16404;DHT22;8311;50.158;8.642;2023-09-18T03:35:48;24.50;64.10
16404;DHT22;8311;50.158;8.642;2023-09-18T03:38:42;24.50;64.10
16404;DHT22;8311;50.158;8.642;2023-09-18T03:41:36;24.50;64.00
16404;DHT22;8311;50.158;8.642;2023-09-18T03:44:30;24.50;64.00
16404;DHT22;8311;50.158;8.642;2023-09-18T03:47:25;24.40;64.00
16404;DHT22;8311;50.158;8.642;2023-09-18T03:50:18;24.40;64.00
16404;DHT22;8311;50.158;8.642;2023-09-18T03:53:11;24.40;64.00
16404;DHT22;8311;50.158;8.642;2023-09-18T03:56:04;24.40;64.00
16404;DHT22;8311;50.158;8.642;2023-09-18T03:58:57;24.40;64.00
16404;DHT22;8311;50.158;8.642;2023-09-18T04:01:54;24.50;64.10
16404;DHT22;8311;50.158;8.642;2023-09-18T04:04:48;24.50;64.00
16404;DHT22;8311;50.158;8.642;2023-09-18T04:07:41;24.50;64.00
16404;DHT22;8311;50.158;8.642;2023-09-18T04:10:38;24.40;63.90
16404;DHT22;8311;50.158;8.642;2023-09-18T04:13:31;24.50;64.00
16404;DHT22;8311;50.158;8.642;2023-09-18T04:16:26;24.40;64.00
16404;DHT22;8311;50.158;8.642;2023-09-18T04:19:21;24.50;64.00
16404;DHT22;8311;50.158;8.642;2023-09-18T04:22:15;24.40;63.90
16404;DHT22;8311;50.158;8.642;2023-09-18T04:25:08;24.50;64.00
16404;DHT22;8311;50.158;8.642;2023-09-18T04:28:01;24.50;64.00
16404;DHT22;8311;50.158;8.642;2023-09-18T04:30:54;24.40;63.90
16404;DHT22;8311;50.158;8.642;2023-09-18T04:33:47;24.50;64.00
16404;DHT22;8311;50.158;8.642;2023-09-18T04:36:42;24.40;63.90
16404;DHT22;8311;50.158;8.642;2023-09-18T04:39:36;24.50;63.90
16404;DHT22;8311;50.158;8.642;2023-09-18T04:42:29;24.40;63.90
16404;DHT22;8311;50.158;8.642;2023-09-18T04:45:22;24.40;63.90
16404;DHT22;8311;50.158;8.642;2023-09-18T04:48:15;24.40;63.90
16404;DHT22;8311;50.158;8.642;2023-09-18T04:51:08;24.50;63.90
16404;DHT22;8311;50.158;8.642;2023-09-18T04:54:03;24.50;63.90
16404;DHT22;8311;50.158;8.642;2023-09-18T04:56:56;24.40;63.90
16404;DHT22;8311;50.158;8.642;2023-09-18T04:59:49;24.50;63.90
16404;DHT22;8311;50.158;8.642;2023-09-18T05:03:00;24.50;63.90
16404;DHT22;8311;50.158;8.642;2023-09-18T05:05:55;24.50;63.90
16404;DHT22;8311;50.158;8.642;2023-09-18T05:08:48;24.50;63.90
16404;DHT22;8311;50.158;8.642;2023-09-18T05:11:43;24.50;63.90
16404;DHT22;8311;50.158;8.642;2023-09-18T05:14:36;24.50;63.90
16404;DHT22;8311;50.158;8.642;2023-09-18T05:17:45;24.40;63.80
16404;DHT22;8311;50.158;8.642;2023-09-18T05:20:40;24.40;63.80
16404;DHT22;8311;50.158;8.642;2023-09-18T05:23:33;24.40;63.80
16404;DHT22;8311;50.158;8.642;2023-09-18T05:26:26;24.50;63.90
16404;DHT22;8311;50.158;8.642;2023-09-18T05:29:23;24.40;63.80
16404;DHT22;8311;50.158;8.642;2023-09-18T05:32:17;24.40;63.80
16404;DHT22;8311;50.158;8.642;2023-09-18T05:35:10;24.50;63.90
16404;DHT22;8311;50.158;8.642;2023-09-18T05:38:06;24.40;63.80
16404;DHT22;8311;50.158;8.642;2023-09-18T05:41:00;24.40;63.80
16404;DHT22;8311;50.158;8.642;2023-09-18T05:43:53;24.50;63.90
16404;DHT22;8311;50.158;8.642;2023-09-18T05:46:47;24.40;63.80
16404;DHT22;8311;50.158;8.642;2023-09-18T05:49:41;24.40;63.80
16404;DHT22;8311;50.158;8.642;2023-09-18T05:52:35;24.50;63.90
16404;DHT22;8311;50.158;8.642;2023-09-18T05:55:28;24.40;63.90
16404;DHT22;8311;50.158;8.642;2023-09-18T05:58:21;24.50;63.90
16404;DHT22;8311;50.158;8.642;2023-09-18T06:01:17;24.50;63.90
16404;DHT22;8311;50.158;8.642;2023-09-18T06:04:12;24.40;63.80
16404;DHT22;8311;50.158;8.642;2023-09-18T06:07:05;24.40;63.80
16404;DHT22;8311;50.158;8.642;2023-09-18T06:09:58;24.40;63.80
16404;DHT22;8311;50.158;8.642;2023-09-18T06:12:51;24.40;63.80
16404;DHT22;8311;50.158;8.642;2023-09-18T06:15:44;24.40;63.80
16404;DHT22;8311;50.158;8.642;2023-09-18T06:18:37;24.40;63.80
16404;DHT22;8311;50.158;8.642;2023-09-18T06:21:33;24.50;63.80
16404;DHT22;8311;50.158;8.642;2023-09-18T06:24:26;24.40;63.80
16404;DHT22;8311;50.158;8.642;2023-09-18T06:27:19;24.40;63.80
16404;DHT22;8311;50.158;8.642;2023-09-18T06:30:12;24.40;63.80
16404;DHT22;8311;50.158;8.642;2023-09-18T06:33:05;24.40;63.80
16404;DHT22;8311;50.158;8.642;2023-09-18T06:35:58;24.50;63.80
16404;DHT22;8311;50.158;8.642;2023-09-18T06:38:53;24.40;63.80
16404;DHT22;8311;50.158;8.642;2023-09-18T06:41:47;24.40;63.80
16404;DHT22;8311;50.158;8.642;2023-09-18T06:44:40;24.40;63.80
16404;DHT22;8311;50.158;8.642;2023-09-18T06:47:33;24.50;63.90
16404;DHT22;8311;50.158;8.642;2023-09-18T06:50:26;24.40;63.80
16404;DHT22;8311;50.158;8.642;2023-09-18T06:53:20;24.40;63.80
16404;DHT22;8311;50.158;8.642;2023-09-18T06:56:14;24.40;63.80
16404;DHT22;8311;50.158;8.642;2023-09-18T06:59:08;24.40;63.90
16404;DHT22;8311;50.158;8.642;2023-09-18T07:02:03;24.40;63.90
16404;DHT22;8311;50.158;8.642;2023-09-18T07:04:56;24.50;63.90
16404;DHT22;8311;50.158;8.642;2023-09-18T07:07:49;24.40;63.80
16404;DHT22;8311;50.158;8.642;2023-09-18T07:10:42;24.50;63.90
16404;DHT22;8311;50.158;8.642;2023-09-18T07:13:37;24.50;63.90
16404;DHT22;8311;50.158;8.642;2023-09-18T07:16:30;24.40;63.80
16404;DHT22;8311;50.158;8.642;2023-09-18T07:19:23;24.40;63.90
16404;DHT22;8311;50.158;8.642;2023-09-18T07:22:18;24.40;63.90
16404;DHT22;8311;50.158;8.642;2023-09-18T07:25:11;24.50;64.00
16404;DHT22;8311;50.158;8.642;2023-09-18T07:28:05;24.40;63.90
16404;DHT22;8311;50.158;8.642;2023-09-18T07:31:05;24.40;63.90
16404;DHT22;8311;50.158;8.642;2023-09-18T07:33:59;24.50;64.00
16404;DHT22;8311;50.158;8.642;2023-09-18T07:36:52;24.40;63.90
16404;DHT22;8311;50.158;8.642;2023-09-18T07:39:47;24.40;63.90
16404;DHT22;8311;50.158;8.642;2023-09-18T07:42:40;24.40;63.90
16404;DHT22;8311;50.158;8.642;2023-09-18T07:45:37;24.40;63.90
16404;DHT22;8311;50.158;8.642;2023-09-18T07:48:32;24.40;63.80
16404;DHT22;8311;50.158;8.642;2023-09-18T07:51:26;24.40;63.80
16404;DHT22;8311;50.158;8.642;2023-09-18T07:54:21;24.50;63.90
16404;DHT22;8311;50.158;8.642;2023-09-18T07:57:15;24.40;63.80
16404;DHT22;8311;50.158;8.642;2023-09-18T08:00:09;24.40;63.80
16404;DHT22;8311;50.158;8.642;2023-09-18T08:03:04;24.50;63.90
16404;DHT22;8311;50.158;8.642;2023-09-18T08:05:58;24.40;63.80
16404;DHT22;8311;50.158;8.642;2023-09-18T08:08:52;24.40;63.80
16404;DHT22;8311;50.158;8.642;2023-09-18T08:11:46;24.40;63.90
16404;DHT22;8311;50.158;8.642;2023-09-18T08:14:41;24.40;63.80
16404;DHT22;8311;50.158;8.642;2023-09-18T08:17:34;24.40;63.80
16404;DHT22;8311;50.158;8.642;2023-09-18T08:20:28;24.40;63.80
16404;DHT22;8311;50.158;8.642;2023-09-18T08:23:24;24.40;63.80
16404;DHT22;8311;50.158;8.642;2023-09-18T08:26:17;24.40;63.80
16404;DHT22;8311;50.158;8.642;2023-09-18T08:29:11;24.40;63.90
16404;DHT22;8311;50.158;8.642;2023-09-18T08:32:05;24.40;63.90
16404;DHT22;8311;50.158;8.642;2023-09-18T08:34:58;24.40;64.00
16404;DHT22;8311;50.158;8.642;2023-09-18T08:37:53;24.40;64.00
16404;DHT22;8311;50.158;8.642;2023-09-18T08:40:48;24.50;64.00
16404;DHT22;8311;50.158;8.642;2023-09-18T08:43:43;24.40;63.90
16404;DHT22;8311;50.158;8.642;2023-09-18T08:46:38;24.40;63.90
16404;DHT22;8311;50.158;8.642;2023-09-18T08:49:31;24.40;63.90
16404;DHT22;8311;50.158;8.642;2023-09-18T08:52:26;24.40;64.00
16404;DHT22;8311;50.158;8.642;2023-09-18T08:55:19;24.40;64.00
16404;DHT22;8311;50.158;8.642;2023-09-18T08:58:14;24.40;64.00
16404;DHT22;8311;50.158;8.642;2023-09-18T09:01:12;24.40;64.10
16404;DHT22;8311;50.158;8.642;2023-09-18T09:04:05;24.50;64.20
16404;DHT22;8311;50.158;8.642;2023-09-18T09:06:59;24.40;64.10
16404;DHT22;8311;50.158;8.642;2023-09-18T09:09:52;24.40;64.10
16404;DHT22;8311;50.158;8.642;2023-09-18T09:12:51;24.40;64.00
16404;DHT22;8311;50.158;8.642;2023-09-18T09:15:48;24.40;64.00
16404;DHT22;8311;50.158;8.642;2023-09-18T09:18:51;24.40;64.00
16404;DHT22;8311;50.158;8.642;2023-09-18T09:21:45;24.40;64.10
16404;DHT22;8311;50.158;8.642;2023-09-18T09:24:40;24.40;64.10
16404;DHT22;8311;50.158;8.642;2023-09-18T09:27:42;24.40;64.10
16404;DHT22;8311;50.158;8.642;2023-09-18T09:30:36;24.40;64.10
16404;DHT22;8311;50.158;8.642;2023-09-18T09:33:31;24.40;64.10
16404;DHT22;8311;50.158;8.642;2023-09-18T09:36:24;24.40;64.10
16404;DHT22;8311;50.158;8.642;2023-09-18T09:39:17;24.40;64.10
16404;DHT22;8311;50.158;8.642;2023-09-18T09:42:13;24.40;64.10
16404;DHT22;8311;50.158;8.642;2023-09-18T09:45:13;24.40;64.10
16404;DHT22;8311;50.158;8.642;2023-09-18T09:48:07;24.40;64.10
16404;DHT22;8311;50.158;8.642;2023-09-18T09:51:02;24.40;64.00
16404;DHT22;8311;50.158;8.642;2023-09-18T09:53:55;24.40;64.00
16404;DHT22;8311;50.158;8.642;2023-09-18T09:56:50;24.40;64.10
16404;DHT22;8311;50.158;8.642;2023-09-18T09:59:45;24.40;64.00
16404;DHT22;8311;50.158;8.642;2023-09-18T10:02:38;24.40;64.10
16404;DHT22;8311;50.158;8.642;2023-09-18T10:05:35;24.40;64.00
16404;DHT22;8311;50.158;8.642;2023-09-18T10:08:31;24.40;64.10
16404;DHT22;8311;50.158;8.642;2023-09-18T10:11:26;24.40;64.10
16404;DHT22;8311;50.158;8.642;2023-09-18T10:14:20;24.40;64.00
16404;DHT22;8311;50.158;8.642;2023-09-18T10:17:21;24.40;64.00
16404;DHT22;8311;50.158;8.642;2023-09-18T10:20:16;24.40;64.00
16404;DHT22;8311;50.158;8.642;2023-09-18T10:23:18;24.40;64.00
16404;DHT22;8311;50.158;8.642;2023-09-18T10:26:23;24.40;63.90
16404;DHT22;8311;50.158;8.642;2023-09-18T10:29:19;24.40;64.00
16404;DHT22;8311;50.158;8.642;2023-09-18T10:32:14;24.40;63.90
16404;DHT22;8311;50.158;8.642;2023-09-18T10:35:07;24.40;63.90
16404;DHT22;8311;50.158;8.642;2023-09-18T10:38:02;24.40;63.90
16404;DHT22;8311;50.158;8.642;2023-09-18T10:40:59;24.40;63.90
16404;DHT22;8311;50.158;8.642;2023-09-18T10:43:56;24.40;63.80
16404;DHT22;8311;50.158;8.642;2023-09-18T10:46:51;24.40;63.80
16404;DHT22;8311;50.158;8.642;2023-09-18T10:49:44;24.40;63.90
16404;DHT22;8311;50.158;8.642;2023-09-18T10:52:43;24.40;63.80
16404;DHT22;8311;50.158;8.642;2023-09-18T10:55:36;24.40;63.80
16404;DHT22;8311;50.158;8.642;2023-09-18T10:58:30;24.40;63.90
16404;DHT22;8311;50.158;8.642;2023-09-18T11:01:29;24.40;63.80
16404;DHT22;8311;50.158;8.642;2023-09-18T11:04:23;24.40;63.90
16404;DHT22;8311;50.158;8.642;2023-09-18T11:07:20;24.40;63.80
16404;DHT22;8311;50.158;8.642;2023-09-18T11:10:25;24.40;63.80
16404;DHT22;8311;50.158;8.642;2023-09-18T11:13:28;24.40;63.80
16404;DHT22;8311;50.158;8.642;2023-09-18T11:16:35;24.40;63.80
16404;DHT22;8311;50.158;8.642;2023-09-18T11:19:31;24.40;63.80
16404;DHT22;8311;50.158;8.642;2023-09-18T11:22:24;24.40;63.80
16404;DHT22;8311;50.158;8.642;2023-09-18T11:25:35;24.40;63.80
16404;DHT22;8311;50.158;8.642;2023-09-18T11:28:29;24.40;63.80
16404;DHT22;8311;50.158;8.642;2023-09-18T11:31:42;24.40;63.80
16404;DHT22;8311;50.158;8.642;2023-09-18T11:34:36;24.40;63.80
16404;DHT22;8311;50.158;8.642;2023-09-18T11:37:33;24.40;63.80
16404;DHT22;8311;50.158;8.642;2023-09-18T11:40:30;24.40;63.70
16404;DHT22;8311;50.158;8.642;2023-09-18T11:43:27;24.40;63.80
16404;DHT22;8311;50.158;8.642;2023-09-18T11:46:22;24.40;63.80
16404;DHT22;8311;50.158;8.642;2023-09-18T11:49:20;24.40;63.80
16404;DHT22;8311;50.158;8.642;2023-09-18T11:52:14;24.40;63.80
16404;DHT22;8311;50.158;8.642;2023-09-18T11:55:08;24.40;63.80
16404;DHT22;8311;50.158;8.642;2023-09-18T11:58:03;24.40;64.50
16404;DHT22;8311;50.158;8.642;2023-09-18T12:00:57;24.40;63.70
16404;DHT22;8311;50.158;8.642;2023-09-18T12:04:00;24.40;63.80
16404;DHT22;8311;50.158;8.642;2023-09-18T12:06:55;24.40;63.70
16404;DHT22;8311;50.158;8.642;2023-09-18T12:09:51;24.40;63.70
16404;DHT22;8311;50.158;8.642;2023-09-18T12:12:47;24.40;63.70
16404;DHT22;8311;50.158;8.642;2023-09-18T12:15:41;24.40;63.80
16404;DHT22;8311;50.158;8.642;2023-09-18T12:18:35;24.40;63.70
16404;DHT22;8311;50.158;8.642;2023-09-18T12:21:30;24.40;63.70
16404;DHT22;8311;50.158;8.642;2023-09-18T12:24:25;24.40;63.70
16404;DHT22;8311;50.158;8.642;2023-09-18T12:27:19;24.40;63.80
16404;DHT22;8311;50.158;8.642;2023-09-18T12:30:13;24.40;63.80
16404;DHT22;8311;50.158;8.642;2023-09-18T12:33:13;24.40;63.80
16404;DHT22;8311;50.158;8.642;2023-09-18T12:36:08;24.40;63.80
16404;DHT22;8311;50.158;8.642;2023-09-18T12:39:02;24.40;63.80
16404;DHT22;8311;50.158;8.642;2023-09-18T12:41:57;24.40;64.60
16404;DHT22;8311;50.158;8.642;2023-09-18T12:44:50;24.40;64.90
16404;DHT22;8311;50.158;8.642;2023-09-18T12:47:44;24.40;65.00
16404;DHT22;8311;50.158;8.642;2023-09-18T12:50:38;24.40;64.10
16404;DHT22;8311;50.158;8.642;2023-09-18T12:53:32;24.40;64.20
16404;DHT22;8311;50.158;8.642;2023-09-18T12:56:25;24.40;64.20
16404;DHT22;8311;50.158;8.642;2023-09-18T12:59:20;24.50;64.20
16404;DHT22;8311;50.158;8.642;2023-09-18T13:02:14;24.50;64.10
16404;DHT22;8311;50.158;8.642;2023-09-18T13:05:08;24.50;64.10
16404;DHT22;8311;50.158;8.642;2023-09-18T13:08:02;24.50;64.20
16404;DHT22;8311;50.158;8.642;2023-09-18T13:10:55;24.50;64.20
16404;DHT22;8311;50.158;8.642;2023-09-18T13:13:57;24.50;64.10
16404;DHT22;8311;50.158;8.642;2023-09-18T13:16:52;24.50;64.00
16404;DHT22;8311;50.158;8.642;2023-09-18T13:19:45;24.50;64.10
16404;DHT22;8311;50.158;8.642;2023-09-18T13:22:39;24.50;63.90
16404;DHT22;8311;50.158;8.642;2023-09-18T13:25:34;24.50;64.10
16404;DHT22;8311;50.158;8.642;2023-09-18T13:28:27;24.50;64.10
16404;DHT22;8311;50.158;8.642;2023-09-18T13:31:22;24.50;64.10
16404;DHT22;8311;50.158;8.642;2023-09-18T13:34:17;24.50;64.20
16404;DHT22;8311;50.158;8.642;2023-09-18T13:37:10;24.50;64.20
16404;DHT22;8311;50.158;8.642;2023-09-18T13:40:07;24.50;64.20
16404;DHT22;8311;50.158;8.642;2023-09-18T13:43:00;24.50;64.20
16404;DHT22;8311;50.158;8.642;2023-09-18T13:45:56;24.50;64.20
16404;DHT22;8311;50.158;8.642;2023-09-18T13:48:50;24.50;64.20
16404;DHT22;8311;50.158;8.642;2023-09-18T13:51:45;24.50;64.20
16404;DHT22;8311;50.158;8.642;2023-09-18T13:54:38;24.50;64.00
16404;DHT22;8311;50.158;8.642;2023-09-18T13:57:33;24.50;64.00
16404;DHT22;8311;50.158;8.642;2023-09-18T14:00:26;24.50;64.10
16404;DHT22;8311;50.158;8.642;2023-09-18T14:03:20;24.50;64.00
16404;DHT22;8311;50.158;8.642;2023-09-18T14:06:13;24.50;64.00
16404;DHT22;8311;50.158;8.642;2023-09-18T14:09:08;24.40;63.80
16404;DHT22;8311;50.158;8.642;2023-09-18T14:12:03;24.40;64.00
16404;DHT22;8311;50.158;8.642;2023-09-18T14:14:56;24.50;64.10
16404;DHT22;8311;50.158;8.642;2023-09-18T14:17:50;24.40;63.90
16404;DHT22;8311;50.158;8.642;2023-09-18T14:20:43;24.50;64.10
16404;DHT22;8311;50.158;8.642;2023-09-18T14:23:36;24.50;64.10
16404;DHT22;8311;50.158;8.642;2023-09-18T14:26:32;24.40;63.80
16404;DHT22;8311;50.158;8.642;2023-09-18T14:29:26;24.40;63.80
16404;DHT22;8311;50.158;8.642;2023-09-18T14:32:19;24.50;63.80
16404;DHT22;8311;50.158;8.642;2023-09-18T14:35:12;24.40;63.70
16404;DHT22;8311;50.158;8.642;2023-09-18T14:38:06;24.40;63.80
16404;DHT22;8311;50.158;8.642;2023-09-18T14:40:59;24.40;63.90
16404;DHT22;8311;50.158;8.642;2023-09-18T14:43:57;24.40;63.80
16404;DHT22;8311;50.158;8.642;2023-09-18T14:46:51;24.50;63.80
16404;DHT22;8311;50.158;8.642;2023-09-18T14:49:45;24.40;63.60
16404;DHT22;8311;50.158;8.642;2023-09-18T14:52:39;24.40;63.80
16404;DHT22;8311;50.158;8.642;2023-09-18T14:55:33;24.40;63.90
16404;DHT22;8311;50.158;8.642;2023-09-18T14:58:26;24.40;64.00
16404;DHT22;8311;50.158;8.642;2023-09-18T15:01:21;24.40;64.10
16404;DHT22;8311;50.158;8.642;2023-09-18T15:04:14;24.50;64.10
16404;DHT22;8311;50.158;8.642;2023-09-18T15:07:07;24.40;64.00
16404;DHT22;8311;50.158;8.642;2023-09-18T15:10:02;24.40;64.00
16404;DHT22;8311;50.158;8.642;2023-09-18T15:12:57;24.40;64.20
16404;DHT22;8311;50.158;8.642;2023-09-18T15:15:50;24.40;64.30
16404;DHT22;8311;50.158;8.642;2023-09-18T15:18:44;24.40;64.30
16404;DHT22;8311;50.158;8.642;2023-09-18T15:21:37;24.40;64.20
16404;DHT22;8311;50.158;8.642;2023-09-18T15:24:31;24.40;64.20
16404;DHT22;8311;50.158;8.642;2023-09-18T15:27:24;24.40;64.20
16404;DHT22;8311;50.158;8.642;2023-09-18T15:30:17;24.40;64.90
16404;DHT22;8311;50.158;8.642;2023-09-18T15:33:11;24.40;64.00
16404;DHT22;8311;50.158;8.642;2023-09-18T15:36:07;24.40;64.10
16404;DHT22;8311;50.158;8.642;2023-09-18T15:39:00;24.40;64.10
16404;DHT22;8311;50.158;8.642;2023-09-18T15:41:56;24.40;64.10
16404;DHT22;8311;50.158;8.642;2023-09-18T15:44:49;24.40;64.00
16404;DHT22;8311;50.158;8.642;2023-09-18T15:47:43;24.40;64.10
16404;DHT22;8311;50.158;8.642;2023-09-18T15:50:36;24.40;64.10
16404;DHT22;8311;50.158;8.642;2023-09-18T15:53:32;24.40;64.10
16404;DHT22;8311;50.158;8.642;2023-09-18T15:56:26;24.40;64.10
16404;DHT22;8311;50.158;8.642;2023-09-18T15:59:18;24.40;64.10
16404;DHT22;8311;50.158;8.642;2023-09-18T16:02:12;24.40;64.10
16404;DHT22;8311;50.158;8.642;2023-09-18T16:05:06;24.40;64.20
16404;DHT22;8311;50.158;8.642;2023-09-18T16:08:00;24.40;64.20
16404;DHT22;8311;50.158;8.642;2023-09-18T16:10:59;24.40;64.20
16404;DHT22;8311;50.158;8.642;2023-09-18T16:13:52;24.40;64.20
16404;DHT22;8311;50.158;8.642;2023-09-18T16:16:47;24.40;64.20
16404;DHT22;8311;50.158;8.642;2023-09-18T16:19:41;24.40;64.20
16404;DHT22;8311;50.158;8.642;2023-09-18T16:22:35;24.40;64.20
16404;DHT22;8311;50.158;8.642;2023-09-18T16:25:28;24.40;64.20
16404;DHT22;8311;50.158;8.642;2023-09-18T16:28:23;24.40;64.20
16404;DHT22;8311;50.158;8.642;2023-09-18T16:31:16;24.40;64.30
16404;DHT22;8311;50.158;8.642;2023-09-18T16:34:10;24.40;64.30
16404;DHT22;8311;50.158;8.642;2023-09-18T16:37:04;24.40;64.30
16404;DHT22;8311;50.158;8.642;2023-09-18T16:39:57;24.40;64.30
16404;DHT22;8311;50.158;8.642;2023-09-18T16:42:50;24.40;64.30
16404;DHT22;8311;50.158;8.642;2023-09-18T16:45:45;24.40;64.30
16404;DHT22;8311;50.158;8.642;2023-09-18T16:48:39;24.40;64.40
16404;DHT22;8311;50.158;8.642;2023-09-18T16:51:32;24.40;64.40
16404;DHT22;8311;50.158;8.642;2023-09-18T16:54:26;24.40;64.30
16404;DHT22;8311;50.158;8.642;2023-09-18T16:57:20;24.40;64.40
16404;DHT22;8311;50.158;8.642;2023-09-18T17:00:13;24.40;64.40
16404;DHT22;8311;50.158;8.642;2023-09-18T17:03:10;24.40;64.40
16404;DHT22;8311;50.158;8.642;2023-09-18T17:06:04;24.40;64.30
16404;DHT22;8311;50.158;8.642;2023-09-18T17:08:58;24.40;64.30
16404;DHT22;8311;50.158;8.642;2023-09-18T17:11:52;24.40;64.30
16404;DHT22;8311;50.158;8.642;2023-09-18T17:14:46;24.40;64.30
16404;DHT22;8311;50.158;8.642;2023-09-18T17:17:40;24.40;64.40
16404;DHT22;8311;50.158;8.642;2023-09-18T17:20:35;24.40;64.20
16404;DHT22;8311;50.158;8.642;2023-09-18T17:23:30;24.40;64.30
16404;DHT22;8311;50.158;8.642;2023-09-18T17:26:23;24.40;64.20
16404;DHT22;8311;50.158;8.642;2023-09-18T17:29:18;24.40;64.20
16404;DHT22;8311;50.158;8.642;2023-09-18T17:32:11;24.40;64.10
16404;DHT22;8311;50.158;8.642;2023-09-18T17:35:04;24.40;64.20
16404;DHT22;8311;50.158;8.642;2023-09-18T17:37:59;24.40;64.20
16404;DHT22;8311;50.158;8.642;2023-09-18T17:40:52;24.40;64.10
16404;DHT22;8311;50.158;8.642;2023-09-18T17:43:45;24.40;64.00
16404;DHT22;8311;50.158;8.642;2023-09-18T17:46:39;24.40;64.00
16404;DHT22;8311;50.158;8.642;2023-09-18T17:49:32;24.40;64.00
16404;DHT22;8311;50.158;8.642;2023-09-18T17:52:26;24.40;64.00
16404;DHT22;8311;50.158;8.642;2023-09-18T17:55:21;24.40;63.80
16404;DHT22;8311;50.158;8.642;2023-09-18T17:58:14;24.40;63.90
16404;DHT22;8311;50.158;8.642;2023-09-18T18:01:08;24.40;63.80
16404;DHT22;8311;50.158;8.642;2023-09-18T18:04:02;24.40;63.80
16404;DHT22;8311;50.158;8.642;2023-09-18T18:06:56;24.40;63.70
16404;DHT22;8311;50.158;8.642;2023-09-18T18:09:50;24.40;63.70
16404;DHT22;8311;50.158;8.642;2023-09-18T18:12:44;24.40;63.70
16404;DHT22;8311;50.158;8.642;2023-09-18T18:15:37;24.40;63.60
16404;DHT22;8311;50.158;8.642;2023-09-18T18:18:31;24.40;63.60
16404;DHT22;8311;50.158;8.642;2023-09-18T18:21:25;24.40;63.60
16404;DHT22;8311;50.158;8.642;2023-09-18T18:24:18;24.40;63.60
16404;DHT22;8311;50.158;8.642;2023-09-18T18:27:12;24.40;63.60
16404;DHT22;8311;50.158;8.642;2023-09-18T18:30:08;24.40;63.50
16404;DHT22;8311;50.158;8.642;2023-09-18T18:33:02;24.40;63.50
16404;DHT22;8311;50.158;8.642;2023-09-18T18:35:56;24.40;63.40
16404;DHT22;8311;50.158;8.642;2023-09-18T18:38:49;24.40;63.40